Terminal Aerodrome Forecast
Issued by NWS Jackson, KY

Home | Current Version | Previous Version | Text Only | Print | Product List | Glossary On
Versions: 1 2 3 4 5 6 7 8 9 10 11 12 13 14 15
000
FTUS43 KJKL 310530
TAFLOZ
TAF
KLOZ 310530Z 3106/0106 00000KT P6SM BKN040
     FM310700 00000KT 5SM BR FEW025
      TEMPO 3110/3112 2SM BR
     FM311400 03004KT P6SM BKN040
     FM010000 00000KT P6SM SKC
     FM010400 36001KT 4SM BR SKC=

USA.gov is the U.S. government's official web portal to all federal, state and local government web resources and services.